Time;durP1;ratioP1;P1;durP2;ratioP2;P2;SDS_P1;SDS_P2;PMS_P1;PMS_P2;Temp;Humidity;BMP_temperature;BMP_pressure;BME280_temperature;BME280_humidity;BME280_pressure;Samples;Min_cycle;Max_cycle;Signal;HPM_P1;HPM_P2
2022/02/05 00:02:52;;;;;;;4.68;1.60;;;4.60;99.90;;;;;;5110266;28;20675;-67
2022/02/05 00:05:25;;;;;;;10.80;1.40;;;4.50;99.90;;;;;;5111160;28;20576;-70
2022/02/05 00:08:09;;;;;;;4.25;1.77;;;4.50;99.90;;;;;;5108839;28;20204;-70
2022/02/05 00:13:50;;;;;;;2.95;1.65;;;4.40;99.90;;;;;;5110132;28;20304;-70
2022/02/05 00:38:23;;;;;;;5.50;3.47;;;3.90;99.90;;;;;;5112354;28;20258;-65
2022/02/05 00:40:56;;;;;;;14.10;3.65;;;4.00;99.90;;;;;;5111838;28;20231;-67
2022/02/05 00:43:23;;;;;;;7.32;4.78;;;4.00;99.90;;;;;;5111178;28;20228;-68
2022/02/05 00:45:54;;;;;;;11.18;4.72;;;3.90;99.90;;;;;;5108706;28;20258;-67
2022/02/05 00:48:22;;;;;;;6.43;4.95;;;4.00;99.90;;;;;;5099712;28;20210;-67
2022/02/05 00:50:55;;;;;;;17.05;6.95;;;3.90;99.90;;;;;;5089031;28;20206;-68
2022/02/05 00:53:30;;;;;;;13.55;7.10;;;3.90;99.90;;;;;;5094334;28;20710;-68
2022/02/05 00:56:07;;;;;;;21.17;8.45;;;3.90;99.90;;;;;;5090081;28;20228;-69
2022/02/05 00:58:39;;;;;;;15.38;8.18;;;3.90;99.90;;;;;;5092968;28;20207;-71
2022/02/05 01:01:06;;;;;;;14.65;8.48;;;4.00;99.90;;;;;;5094118;28;20231;-69
2022/02/05 01:03:34;;;;;;;10.13;8.50;;;4.00;99.90;;;;;;5095484;28;20221;-69
2022/02/05 01:06:03;;;;;;;17.55;9.30;;;4.00;99.90;;;;;;5095371;28;20663;-69
2022/02/05 01:08:31;;;;;;;19.77;8.57;;;4.10;99.90;;;;;;5095525;28;20612;-69
2022/02/05 01:10:59;;;;;;;17.73;8.52;;;4.20;99.90;;;;;;5089396;28;20194;-68
2022/02/05 01:13:29;;;;;;;15.43;7.07;;;4.10;99.90;;;;;;5095260;28;20222;-67
2022/02/05 01:16:04;;;;;;;17.83;6.40;;;4.20;99.90;;;;;;5093895;28;20692;-69
2022/02/05 01:18:34;;;;;;;8.00;5.35;;;4.20;99.90;;;;;;5104672;28;20672;-71
2022/02/05 01:21:13;;;;;;;11.48;4.47;;;4.30;99.90;;;;;;5089688;28;20194;-68
2022/02/05 01:23:45;;;;;;;6.05;3.50;;;4.40;99.90;;;;;;5083451;28;20667;-67
2022/02/05 01:26:22;;;;;;;9.30;4.55;;;4.30;99.90;;;;;;5092541;28;20203;-67
2022/02/05 01:28:54;;;;;;;9.05;3.90;;;4.30;99.90;;;;;;5095692;28;20259;-70
2022/02/05 01:31:25;;;;;;;12.18;4.55;;;4.30;99.90;;;;;;5097418;28;20202;-69
2022/02/05 01:34:03;;;;;;;5.95;4.00;;;4.30;99.90;;;;;;5093875;28;20637;-68
2022/02/05 01:39:27;;;;;;;9.32;3.67;;;4.30;99.90;;;;;;5094053;28;20256;-68
2022/02/05 01:50:54;;;;;;;9.43;4.15;;;4.30;99.90;;;;;;5099911;28;20210;-68
2022/02/05 01:53:46;;;;;;;10.00;3.20;;;4.30;99.90;;;;;;5090665;28;20282;-68
2022/02/05 01:59:19;;;;;;;11.45;4.32;;;4.30;99.90;;;;;;5096560;28;20648;-68
2022/02/05 02:04:51;;;;;;;9.07;3.30;;;4.30;99.90;;;;;;5091790;28;20285;-67
2022/02/05 02:15:59;;;;;;;9.25;3.00;;;4.20;99.90;;;;;;5100598;28;20226;-69
2022/02/05 02:18:38;;;;;;;8.43;3.95;;;4.20;99.90;;;;;;5091955;28;20224;-69
2022/02/05 02:21:19;;;;;;;11.88;4.72;;;4.20;99.90;;;;;;5085586;28;20204;-67
2022/02/05 02:23:57;;;;;;;5.70;3.17;;;4.20;99.90;;;;;;5092403;28;20645;-68
2022/02/05 02:26:35;;;;;;;12.45;3.78;;;4.20;99.90;;;;;;5087247;28;20209;-71
2022/02/05 02:29:06;;;;;;;8.48;3.55;;;4.30;99.90;;;;;;5092161;28;20663;-69
2022/02/05 02:31:40;;;;;;;4.95;3.42;;;4.30;99.90;;;;;;5089732;28;20249;-67
2022/02/05 02:34:14;;;;;;;6.40;2.60;;;4.40;99.90;;;;;;5094456;28;20262;-66
2022/02/05 02:36:47;;;;;;;6.50;3.03;;;4.40;99.90;;;;;;5095412;28;20210;-68
2022/02/05 02:39:19;;;;;;;13.38;3.72;;;4.30;99.90;;;;;;5094222;28;20202;-70
2022/02/05 02:41:50;;;;;;;9.57;3.72;;;4.30;99.90;;;;;;5092532;28;20215;-69
2022/02/05 02:44:17;;;;;;;6.28;3.13;;;4.30;99.90;;;;;;5093951;28;20202;-67
2022/02/05 02:46:44;;;;;;;9.05;2.75;;;4.30;99.90;;;;;;5093842;28;20186;-66
2022/02/05 02:49:15;;;;;;;6.93;3.30;;;4.30;99.90;;;;;;5091701;28;20271;-67
2022/02/05 02:57:20;;;;;;;9.93;3.25;;;4.40;99.90;;;;;;5093032;28;20612;-68
2022/02/05 02:59:52;;;;;;;8.93;3.00;;;4.50;99.90;;;;;;5093235;28;20194;-66
2022/02/05 03:02:22;;;;;;;5.03;2.03;;;4.60;99.90;;;;;;5091569;28;20252;-67
2022/02/05 03:04:50;;;;;;;9.32;2.83;;;4.60;99.90;;;;;;5093491;28;20202;-67
2022/02/05 03:07:17;;;;;;;10.57;2.72;;;4.60;99.90;;;;;;5100890;28;20206;-67
2022/02/05 03:09:46;;;;;;;5.82;2.38;;;4.50;99.90;;;;;;5092821;28;20202;-68
2022/02/05 03:12:13;;;;;;;9.75;2.83;;;4.50;99.90;;;;;;5093078;28;20229;-67
2022/02/05 03:14:41;;;;;;;7.00;2.20;;;4.50;99.90;;;;;;5101610;28;20656;-67
2022/02/05 03:17:16;;;;;;;9.65;2.75;;;4.40;99.90;;;;;;5087681;28;20661;-67
2022/02/05 03:19:44;;;;;;;10.43;3.72;;;4.40;99.90;;;;;;5081866;28;20717;-67
2022/02/05 03:22:12;;;;;;;11.18;3.47;;;4.50;99.90;;;;;;5093434;28;20313;-70
2022/02/05 03:24:38;;;;;;;15.18;3.90;;;4.50;99.90;;;;;;5093330;28;20210;-67
2022/02/05 03:27:07;;;;;;;6.15;2.58;;;4.50;99.90;;;;;;5093618;28;20277;-69
2022/02/05 03:29:36;;;;;;;14.88;3.05;;;4.50;99.90;;;;;;5093353;28;20206;-66
2022/02/05 03:32:03;;;;;;;15.48;3.05;;;4.60;99.90;;;;;;5097139;28;20316;-69
2022/02/05 03:34:30;;;;;;;8.27;2.33;;;4.60;99.90;;;;;;5094054;28;20636;-68
2022/02/05 03:36:57;;;;;;;11.18;2.40;;;4.60;99.90;;;;;;5091218;28;20207;-68
2022/02/05 03:39:24;;;;;;;8.15;2.45;;;4.60;99.90;;;;;;5090181;28;20201;-69
2022/02/05 03:41:53;;;;;;;10.43;3.20;;;4.60;99.90;;;;;;5104918;28;20300;-67
2022/02/05 03:44:22;;;;;;;7.85;2.28;;;4.60;99.90;;;;;;5112571;28;20268;-70
2022/02/05 03:46:50;;;;;;;21.92;4.97;;;4.60;99.90;;;;;;5098094;28;20206;-69
2022/02/05 03:49:18;;;;;;;8.77;4.30;;;4.70;99.90;;;;;;5094276;28;20255;-67
2022/02/05 03:51:46;;;;;;;16.23;4.20;;;4.70;99.90;;;;;;5095072;28;20214;-67
2022/02/05 03:54:18;;;;;;;12.75;2.72;;;4.70;99.90;;;;;;5097944;28;20198;-67
2022/02/05 03:56:44;;;;;;;13.00;4.47;;;4.70;99.90;;;;;;5081940;28;20268;-74
2022/02/05 03:59:21;;;;;;;7.72;2.67;;;4.70;99.90;;;;;;5107962;28;20189;-68
2022/02/05 04:01:48;;;;;;;5.88;2.20;;;4.70;99.90;;;;;;5103817;28;20300;-68
2022/02/05 04:04:28;;;;;;;11.07;3.03;;;4.70;99.90;;;;;;5093704;28;20194;-68
2022/02/05 04:06:54;;;;;;;11.40;2.75;;;4.70;99.90;;;;;;5073404;28;20198;-68
2022/02/05 04:09:28;;;;;;;6.80;3.65;;;4.70;99.90;;;;;;5092337;28;20198;-69
2022/02/05 04:15:56;;;;;;;6.07;2.70;;;4.60;99.90;;;;;;5092996;28;20676;-68
2022/02/05 04:17:32;;;;;;;13.20;2.85;;;4.60;99.90;;;;;;5084147;28;20212;-69
2022/02/05 04:19:59;;;;;;;8.75;3.05;;;4.60;99.90;;;;;;5088730;28;20202;-66
2022/02/05 04:22:27;;;;;;;8.63;3.00;;;4.60;99.90;;;;;;5098375;28;20268;-69
2022/02/05 04:24:54;;;;;;;6.00;2.47;;;4.60;99.90;;;;;;5090139;28;20206;-67
2022/02/05 04:27:21;;;;;;;12.45;4.07;;;4.70;99.90;;;;;;5099732;28;20267;-68
2022/02/05 04:29:49;;;;;;;7.97;2.83;;;4.80;99.90;;;;;;5092986;28;21559;-66
2022/02/05 04:32:16;;;;;;;14.82;2.85;;;4.80;99.90;;;;;;5095856;28;20312;-68
2022/02/05 04:34:43;;;;;;;21.98;4.50;;;4.80;99.90;;;;;;5096343;28;20246;-68
2022/02/05 04:37:10;;;;;;;12.13;2.70;;;4.90;99.90;;;;;;5098519;28;20225;-66
2022/02/05 04:39:42;;;;;;;12.02;6.15;;;5.10;99.90;;;;;;5096824;28;20285;-66
2022/02/05 04:42:17;;;;;;;8.75;2.90;;;4.90;99.90;;;;;;5096253;28;20248;-69
2022/02/05 04:45:03;;;;;;;12.20;2.85;;;4.90;99.90;;;;;;5091868;28;20233;-68
2022/02/05 04:50:33;;;;;;;16.17;3.10;;;5.00;99.90;;;;;;5083648;28;20203;-70
2022/02/05 04:56:20;;;;;;;14.13;4.10;;;5.20;99.90;;;;;;5098292;28;20297;-67
2022/02/05 05:02:06;;;;;;;11.82;3.75;;;5.20;99.90;;;;;;5144123;27;20530;-66
2022/02/05 05:04:39;;;;;;;5.20;2.88;;;5.10;99.90;;;;;;5125217;27;20204;-68
2022/02/05 05:09:59;;;;;;;6.72;2.60;;;5.00;99.90;;;;;;5126707;28;20191;-70
2022/02/05 05:12:33;;;;;;;10.88;3.42;;;5.00;99.90;;;;;;5101892;28;20308;-67
2022/02/05 05:20:39;;;;;;;13.15;5.20;;;5.10;99.90;;;;;;5118706;27;20366;-68
2022/02/05 05:23:06;;;;;;;4.35;3.75;;;5.00;99.90;;;;;;5122079;27;20581;-67
2022/02/05 05:25:33;;;;;;;9.27;3.83;;;5.00;99.90;;;;;;5121851;28;20304;-68
2022/02/05 05:28:01;;;;;;;8.98;3.85;;;4.80;99.90;;;;;;5126646;27;20722;-67
2022/02/05 05:30:28;;;;;;;10.80;6.45;;;4.70;99.90;;;;;;5116324;28;20194;-68
2022/02/05 05:32:57;;;;;;;17.60;4.97;;;4.50;99.90;;;;;;5113712;28;20225;-67
2022/02/05 05:35:24;;;;;;;15.15;3.88;;;4.40;99.90;;;;;;5118812;28;20284;-70
2022/02/05 05:37:52;;;;;;;18.55;3.67;;;4.30;99.90;;;;;;5127175;27;20292;-67
2022/02/05 05:40:20;;;;;;;18.48;4.65;;;4.30;99.90;;;;;;5114062;28;20739;-68
2022/02/05 05:42:58;;;;;;;14.10;3.58;;;4.30;99.90;;;;;;5125718;27;20228;-70
2022/02/05 05:48:12;;;;;;;5.55;2.75;;;4.30;99.90;;;;;;5117465;27;20193;-70
2022/02/05 05:50:59;;;;;;;8.85;3.53;;;4.30;99.90;;;;;;5130080;27;20254;-68
2022/02/05 05:53:27;;;;;;;11.02;2.75;;;4.30;99.90;;;;;;5131015;27;20231;-67
2022/02/05 05:55:54;;;;;;;13.57;4.15;;;4.40;99.90;;;;;;5130907;27;20613;-67
2022/02/05 05:58:21;;;;;;;24.35;3.60;;;4.30;99.90;;;;;;5120355;27;20278;-68
2022/02/05 06:00:50;;;;;;;9.90;2.50;;;4.40;99.90;;;;;;5111946;28;20230;-67
2022/02/05 06:03:18;;;;;;;7.72;3.05;;;4.40;99.90;;;;;;5119744;28;20214;-69
2022/02/05 06:05:47;;;;;;;11.65;3.13;;;4.50;99.90;;;;;;5128414;28;20655;-67
2022/02/05 06:08:20;;;;;;;10.75;3.15;;;4.40;99.90;;;;;;5130169;28;20280;-67
2022/02/05 06:10:46;;;;;;;11.82;3.88;;;4.40;99.90;;;;;;5108840;28;20241;-69
2022/02/05 06:13:14;;;;;;;13.77;3.30;;;4.40;99.90;;;;;;5101991;28;20309;-68
2022/02/05 06:15:42;;;;;;;16.48;3.30;;;4.40;99.90;;;;;;5093590;28;20206;-69
2022/02/05 06:18:10;;;;;;;13.32;2.97;;;4.40;99.90;;;;;;5106684;28;20194;-69
2022/02/05 06:20:39;;;;;;;15.88;6.35;;;4.40;99.90;;;;;;5100874;28;20579;-70
2022/02/05 06:23:06;;;;;;;18.27;5.25;;;4.30;99.90;;;;;;5109328;28;20589;-68
2022/02/05 06:25:35;;;;;;;12.15;3.65;;;4.30;99.90;;;;;;5104820;28;20676;-67
2022/02/05 06:28:02;;;;;;;13.40;3.63;;;4.30;99.90;;;;;;5108606;28;20659;-67
2022/02/05 06:30:29;;;;;;;13.25;3.80;;;4.30;99.90;;;;;;5101953;28;20195;-70
2022/02/05 06:32:56;;;;;;;14.75;4.05;;;4.40;99.90;;;;;;5115110;28;20259;-69
2022/02/05 06:35:23;;;;;;;8.50;4.43;;;4.40;99.90;;;;;;5090471;28;20369;-67
2022/02/05 06:37:51;;;;;;;14.27;3.88;;;4.50;99.90;;;;;;5112092;28;20285;-67
2022/02/05 06:40:19;;;;;;;11.18;3.90;;;4.40;99.90;;;;;;5103749;28;20224;-68
2022/02/05 06:42:46;;;;;;;11.95;2.85;;;4.50;99.90;;;;;;5111680;28;20221;-66
2022/02/05 06:45:14;;;;;;;20.75;4.88;;;4.50;99.90;;;;;;5100430;28;20201;-70
2022/02/05 06:47:41;;;;;;;16.05;4.65;;;4.50;99.90;;;;;;5106652;28;20205;-67
2022/02/05 06:50:08;;;;;;;12.00;2.95;;;4.60;99.90;;;;;;5104089;28;20229;-69
2022/02/05 06:52:35;;;;;;;7.72;3.50;;;4.60;99.90;;;;;;5091709;28;20689;-70
2022/02/05 06:55:05;;;;;;;9.10;2.90;;;4.60;99.90;;;;;;5104230;28;20216;-67
2022/02/05 06:57:32;;;;;;;20.33;4.93;;;4.50;99.90;;;;;;5097042;28;20679;-67
2022/02/05 06:59:59;;;;;;;11.75;3.25;;;4.50;99.90;;;;;;5108565;28;20304;-69
2022/02/05 07:02:25;;;;;;;24.52;4.05;;;4.50;99.90;;;;;;5091871;28;20226;-66
2022/02/05 07:04:53;;;;;;;13.60;3.33;;;4.50;99.90;;;;;;5092911;28;20230;-67
2022/02/05 07:07:20;;;;;;;12.73;2.92;;;4.40;99.90;;;;;;5096726;28;20653;-68
2022/02/05 07:09:47;;;;;;;23.73;3.90;;;4.40;99.90;;;;;;5105124;28;20238;-67
2022/02/05 07:12:15;;;;;;;7.35;2.63;;;4.40;99.90;;;;;;5108598;28;20246;-68
2022/02/05 07:14:44;;;;;;;21.48;4.72;;;4.40;99.90;;;;;;5107421;28;20708;-70
2022/02/05 07:17:17;;;;;;;10.95;3.83;;;4.30;99.90;;;;;;5082885;28;20245;-67
2022/02/05 07:19:57;;;;;;;17.35;3.80;;;4.40;99.90;;;;;;5088882;28;20252;-66
2022/02/05 07:22:27;;;;;;;11.75;3.13;;;4.40;99.90;;;;;;5074937;28;20582;-69
2022/02/05 07:30:21;;;;;;;10.85;4.18;;;4.60;99.90;;;;;;5088382;28;20626;-67
2022/02/05 07:32:48;;;;;;;18.77;4.00;;;4.70;99.90;;;;;;5103826;28;20221;-68
2022/02/05 07:35:15;;;;;;;17.13;3.42;;;4.80;99.90;;;;;;5098590;28;20300;-68
2022/02/05 07:37:42;;;;;;;14.75;4.07;;;5.00;99.90;;;;;;5108137;28;20205;-69
2022/02/05 07:40:10;;;;;;;10.68;3.13;;;5.10;99.90;;;;;;5106391;28;20230;-70
2022/02/05 07:42:38;;;;;;;9.13;2.90;;;5.10;99.90;;;;;;5101493;28;20250;-72
2022/02/05 07:45:07;;;;;;;12.93;2.38;;;5.20;99.90;;;;;;5084368;28;20238;-71
2022/02/05 07:47:34;;;;;;;8.05;3.28;;;5.40;99.90;;;;;;5094847;28;20549;-71
2022/02/05 07:50:02;;;;;;;10.65;3.03;;;5.60;99.90;;;;;;5108706;28;20230;-71
2022/02/05 07:52:31;;;;;;;9.50;2.90;;;5.80;99.90;;;;;;5115917;28;20639;-71
2022/02/05 07:54:57;;;;;;;7.20;3.03;;;5.80;99.90;;;;;;5107941;28;20194;-69
2022/02/05 07:57:27;;;;;;;8.00;3.08;;;5.70;99.90;;;;;;5111610;28;20644;-70
2022/02/05 07:59:55;;;;;;;15.05;2.80;;;5.80;99.90;;;;;;5094500;28;20296;-68
2022/02/05 08:02:22;;;;;;;18.52;4.68;;;6.10;99.90;;;;;;5103012;28;20226;-69
2022/02/05 08:04:49;;;;;;;7.72;3.83;;;6.00;99.90;;;;;;5087423;28;20287;-70
2022/02/05 08:07:16;;;;;;;13.70;2.95;;;6.00;99.90;;;;;;5107840;28;20338;-68
2022/02/05 08:09:46;;;;;;;12.07;2.80;;;6.10;99.90;;;;;;5105840;28;20331;-69
2022/02/05 08:12:15;;;;;;;13.60;3.72;;;6.40;99.90;;;;;;5103706;28;20213;-69
2022/02/05 08:14:47;;;;;;;16.67;3.17;;;6.80;99.90;;;;;;5099876;28;20290;-70
2022/02/05 08:17:20;;;;;;;13.15;3.50;;;7.10;99.90;;;;;;5107270;28;20197;-69
2022/02/05 08:19:47;;;;;;;12.70;3.08;;;7.50;99.90;;;;;;5093911;28;20209;-70
2022/02/05 08:22:15;;;;;;;10.60;3.22;;;7.70;99.90;;;;;;5105079;28;20241;-69
2022/02/05 08:24:42;;;;;;;10.45;3.28;;;7.90;99.90;;;;;;5111602;28;20205;-70
2022/02/05 08:27:09;;;;;;;10.15;2.78;;;8.00;99.90;;;;;;5105589;28;20230;-71
2022/02/05 08:29:39;;;;;;;10.15;2.40;;;8.10;99.90;;;;;;5109070;28;20280;-71
2022/02/05 08:32:08;;;;;;;8.40;3.38;;;7.90;99.90;;;;;;5108565;28;20688;-70
2022/02/05 08:34:36;;;;;;;13.90;3.75;;;7.40;99.90;;;;;;5097531;28;20208;-68
2022/02/05 08:37:03;;;;;;;7.18;3.47;;;7.40;99.90;;;;;;5104412;28;20205;-71
2022/02/05 08:39:31;;;;;;;14.68;4.97;;;7.40;99.90;;;;;;5107285;28;20193;-68
2022/02/05 08:41:58;;;;;;;7.55;2.92;;;7.90;99.90;;;;;;5109570;28;20227;-70
2022/02/05 08:44:25;;;;;;;10.18;3.50;;;8.00;99.90;;;;;;5098608;28;20196;-71
2022/02/05 08:46:53;;;;;;;15.60;4.60;;;8.20;99.90;;;;;;5088901;28;20296;-69
2022/02/05 08:49:20;;;;;;;10.93;3.20;;;8.30;99.90;;;;;;5080793;28;20198;-69
2022/02/05 08:51:49;;;;;;;17.83;2.90;;;8.20;99.90;;;;;;5090216;28;20305;-68
2022/02/05 08:54:16;;;;;;;11.70;3.75;;;8.40;99.90;;;;;;5090539;28;20670;-67
2022/02/05 08:56:43;;;;;;;11.05;3.40;;;8.70;99.90;;;;;;5091475;28;20616;-70
2022/02/05 08:59:10;;;;;;;11.73;3.97;;;8.90;99.90;;;;;;5104739;28;20668;-66
2022/02/05 09:01:49;;;;;;;16.33;4.05;;;9.70;99.90;;;;;;5101509;28;20315;-68
2022/02/05 09:04:25;;;;;;;5.20;2.67;;;9.60;99.90;;;;;;5093193;28;20202;-68
2022/02/05 09:06:56;;;;;;;11.93;2.50;;;9.30;99.90;;;;;;5091037;28;20197;-69
2022/02/05 09:09:34;;;;;;;10.05;3.15;;;10.00;99.90;;;;;;5095446;28;20195;-72
2022/02/05 09:12:16;;;;;;;13.05;3.03;;;10.10;99.90;;;;;;5094784;28;20219;-68
2022/02/05 09:14:46;;;;;;;13.07;3.38;;;10.20;99.90;;;;;;5085991;28;20214;-70
2022/02/05 09:17:13;;;;;;;10.15;2.83;;;11.30;99.90;;;;;;5102863;28;20193;-69
2022/02/05 09:19:40;;;;;;;11.77;3.00;;;11.70;99.90;;;;;;5101281;28;20676;-67
2022/02/05 09:22:11;;;;;;;7.13;2.70;;;11.60;99.90;;;;;;5103131;28;20229;-69
2022/02/05 09:24:38;;;;;;;18.07;5.37;;;10.70;99.90;;;;;;5099593;28;20799;-67
2022/02/05 09:27:09;;;;;;;8.43;2.70;;;9.90;99.90;;;;;;5083579;28;20434;-69
2022/02/05 09:29:42;;;;;;;14.55;3.92;;;9.40;99.90;;;;;;5083623;28;20652;-69
2022/02/05 09:32:09;;;;;;;14.90;3.50;;;8.30;99.90;;;;;;5081025;28;20680;-67
2022/02/05 09:34:36;;;;;;;10.88;2.33;;;8.20;99.90;;;;;;5087186;28;20206;-68
2022/02/05 09:37:04;;;;;;;15.30;2.58;;;8.00;99.90;;;;;;5098669;28;20197;-71
2022/02/05 09:39:33;;;;;;;7.28;3.40;;;8.80;99.90;;;;;;5103337;28;20639;-69
2022/02/05 09:42:01;;;;;;;7.75;3.25;;;9.00;99.90;;;;;;5105560;28;20236;-69
2022/02/05 09:44:29;;;;;;;16.83;3.95;;;8.60;99.90;;;;;;5098387;28;20201;-72
2022/02/05 09:46:56;;;;;;;9.40;3.15;;;8.10;99.90;;;;;;5099216;28;20194;-70
2022/02/05 09:49:25;;;;;;;6.00;2.85;;;7.80;99.90;;;;;;5105733;28;20339;-71
2022/02/05 09:52:06;;;;;;;10.05;3.40;;;7.80;99.90;;;;;;5112687;28;20324;-71
2022/02/05 09:54:36;;;;;;;19.85;3.92;;;7.80;99.90;;;;;;5110094;28;20205;-74
2022/02/05 09:57:12;;;;;;;17.00;4.35;;;7.70;99.90;;;;;;5096616;28;20203;-74
2022/02/05 09:59:40;;;;;;;14.27;3.60;;;8.10;99.90;;;;;;5076315;28;20260;-75
2022/02/05 10:02:25;;;;;;;11.70;3.47;;;8.10;99.90;;;;;;5098354;28;20680;-72
2022/02/05 10:05:19;;;;;;;16.35;5.63;;;8.10;99.90;;;;;;5094122;28;20263;-76
2022/02/05 10:07:56;;;;;;;10.73;2.70;;;8.30;99.90;;;;;;5081440;28;20217;-73
2022/02/05 10:10:36;;;;;;;7.40;3.13;;;8.60;99.90;;;;;;5097546;28;20194;-72
2022/02/05 10:13:08;;;;;;;14.43;3.75;;;9.20;99.90;;;;;;5089845;28;20225;-74
2022/02/05 10:15:36;;;;;;;14.15;4.38;;;9.00;99.90;;;;;;5098887;28;20241;-73
2022/02/05 10:18:04;;;;;;;8.95;3.50;;;8.80;99.90;;;;;;5107851;28;20223;-75
2022/02/05 10:20:31;;;;;;;11.48;3.15;;;8.80;99.90;;;;;;5097572;28;20214;-73
2022/02/05 10:23:09;;;;;;;7.40;3.55;;;8.50;99.90;;;;;;5106078;28;20238;-75
2022/02/05 10:25:38;;;;;;;11.45;4.22;;;8.30;99.90;;;;;;5109029;28;20209;-74
2022/02/05 10:28:10;;;;;;;12.18;4.63;;;8.20;99.90;;;;;;5095935;28;20193;-73
2022/02/05 10:30:43;;;;;;;16.73;3.95;;;8.50;99.90;;;;;;5103559;28;20286;-73
2022/02/05 10:33:15;;;;;;;7.65;4.10;;;9.00;99.90;;;;;;5108249;28;20213;-73
2022/02/05 10:35:48;;;;;;;10.48;3.45;;;8.60;99.90;;;;;;5093377;28;20289;-75
2022/02/05 10:38:35;;;;;;;12.90;4.68;;;8.30;99.90;;;;;;5097925;28;20247;-73
2022/02/05 10:43:53;;;;;;;11.00;3.97;;;8.80;99.90;;;;;;5109982;28;20220;-77
2022/02/05 10:46:21;;;;;;;35.92;5.80;;;8.60;99.90;;;;;;5100683;28;20233;-73
2022/02/05 10:48:48;;;;;;;14.23;3.88;;;8.40;99.90;;;;;;5086958;28;20253;-73
2022/02/05 10:51:16;;;;;;;12.90;3.45;;;8.40;99.90;;;;;;5093106;28;20621;-72
2022/02/05 10:53:50;;;;;;;13.00;3.00;;;8.30;99.90;;;;;;5098690;28;20198;-72
2022/02/05 10:56:30;;;;;;;17.13;3.80;;;8.20;99.90;;;;;;5086892;28;20256;-71
2022/02/05 10:59:15;;;;;;;13.55;3.80;;;7.90;99.90;;;;;;5080486;28;20212;-72
2022/02/05 11:07:15;;;;;;;16.65;5.95;;;7.40;99.90;;;;;;5089954;28;20232;-75
2022/02/05 11:09:44;;;;;;;9.95;5.30;;;7.80;99.90;;;;;;5101001;28;20205;-73
2022/02/05 11:12:48;;;;;;;17.70;6.25;;;7.80;99.90;;;;;;5102359;28;20212;-73
2022/02/05 11:20:47;;;;;;;13.60;4.00;;;7.70;99.90;;;;;;5076741;28;20642;-71
2022/02/05 11:23:14;;;;;;;12.85;5.18;;;7.70;99.90;;;;;;5095536;28;20482;-75
2022/02/05 11:25:43;;;;;;;13.68;4.68;;;7.80;99.90;;;;;;5113988;28;20280;-74
2022/02/05 11:28:12;;;;;;;13.88;4.20;;;7.70;99.90;;;;;;5105479;28;20238;-73
2022/02/05 11:30:43;;;;;;;16.63;3.85;;;7.80;99.90;;;;;;5108708;28;20210;-73
2022/02/05 11:33:22;;;;;;;14.25;4.07;;;7.80;99.90;;;;;;5108176;28;20212;-73
2022/02/05 11:36:21;;;;;;;14.27;4.07;;;7.60;99.90;;;;;;5110711;28;20201;-73
2022/02/05 11:39:03;;;;;;;14.55;3.78;;;7.60;99.90;;;;;;5112826;28;20208;-74
2022/02/05 11:41:33;;;;;;;9.40;4.13;;;7.50;99.90;;;;;;5114590;28;20282;-74
2022/02/05 11:44:24;;;;;;;24.13;3.97;;;7.30;99.90;;;;;;5113919;28;20200;-74
2022/02/05 11:47:29;;;;;;;12.93;4.95;;;7.50;99.90;;;;;;5113418;28;20200;-75
2022/02/05 11:50:19;;;;;;;11.80;3.60;;;7.70;99.90;;;;;;5106222;28;20235;-74
2022/02/05 11:52:56;;;;;;;15.05;4.00;;;7.70;99.90;;;;;;5098191;28;20225;-73
2022/02/05 11:55:35;;;;;;;8.95;3.65;;;7.80;99.90;;;;;;5106861;28;20198;-72
2022/02/05 11:58:03;;;;;;;12.18;4.35;;;7.60;99.90;;;;;;5099271;28;20204;-73
2022/02/05 12:00:34;;;;;;;17.83;4.45;;;7.60;99.90;;;;;;5104022;28;20210;-72
2022/02/05 12:03:17;;;;;;;10.80;3.28;;;7.70;99.90;;;;;;5106067;28;20221;-71
2022/02/05 12:05:54;;;;;;;11.85;3.00;;;7.60;99.90;;;;;;5096599;28;20236;-72
2022/02/05 12:08:27;;;;;;;10.48;4.40;;;7.50;99.90;;;;;;5094309;28;20206;-74
2022/02/05 12:10:57;;;;;;;14.23;3.70;;;7.50;99.90;;;;;;5079472;28;20237;-75
2022/02/05 12:13:27;;;;;;;11.23;4.13;;;7.40;99.90;;;;;;5088018;28;20222;-73
2022/02/05 12:16:21;;;;;;;18.98;4.05;;;7.30;99.90;;;;;;5075031;28;20618;-71
2022/02/05 12:19:14;;;;;;;12.82;3.78;;;7.30;99.90;;;;;;5084688;28;20237;-72
2022/02/05 12:21:59;;;;;;;12.73;4.68;;;7.20;99.90;;;;;;5091117;28;20309;-75
2022/02/05 12:24:40;;;;;;;10.02;3.28;;;7.40;99.90;;;;;;5082178;28;20213;-72
2022/02/05 12:27:33;;;;;;;14.80;4.43;;;7.40;99.90;;;;;;5094398;28;20312;-74
2022/02/05 12:30:38;;;;;;;9.63;3.20;;;7.50;99.90;;;;;;5090758;28;20263;-73
2022/02/05 12:33:09;;;;;;;6.95;3.03;;;7.60;99.90;;;;;;5105373;28;20268;-70
2022/02/05 12:35:38;;;;;;;14.43;3.60;;;7.60;99.90;;;;;;5106178;28;20596;-73
2022/02/05 12:38:08;;;;;;;10.93;4.35;;;7.70;99.90;;;;;;5099879;28;20224;-73
2022/02/05 12:40:44;;;;;;;14.85;3.17;;;7.60;99.90;;;;;;5106878;28;20647;-73
2022/02/05 12:43:14;;;;;;;10.48;3.75;;;7.60;99.90;;;;;;5077905;28;20283;-73
2022/02/05 12:45:54;;;;;;;6.97;2.55;;;7.50;99.90;;;;;;5097047;28;20206;-70
2022/02/05 12:48:29;;;;;;;16.70;4.30;;;7.60;99.90;;;;;;5091515;28;20231;-74
2022/02/05 12:51:03;;;;;;;7.80;2.92;;;7.80;99.90;;;;;;5083668;28;20216;-73
2022/02/05 12:53:31;;;;;;;9.05;2.75;;;7.60;99.90;;;;;;5084514;28;20222;-74
2022/02/05 12:56:12;;;;;;;10.13;3.45;;;7.60;99.90;;;;;;5093352;28;20652;-74
2022/02/05 12:58:55;;;;;;;5.90;3.08;;;7.70;99.90;;;;;;5112211;28;20200;-72
2022/02/05 13:01:25;;;;;;;5.60;2.97;;;7.70;99.90;;;;;;5086541;28;20236;-74
2022/02/05 13:04:11;;;;;;;8.68;3.05;;;7.50;99.90;;;;;;5081394;28;20295;-72
2022/02/05 13:06:39;;;;;;;4.20;2.63;;;7.50;99.90;;;;;;5098049;28;20292;-71
2022/02/05 13:09:18;;;;;;;8.02;3.42;;;7.40;99.90;;;;;;5096466;28;20196;-72
2022/02/05 13:11:46;;;;;;;10.18;2.75;;;7.40;99.90;;;;;;5096339;28;20226;-74
2022/02/05 13:14:16;;;;;;;12.00;4.93;;;7.50;99.90;;;;;;5090396;28;20702;-75
2022/02/05 13:16:48;;;;;;;4.93;2.33;;;7.50;99.90;;;;;;5091330;28;20201;-71
2022/02/05 13:19:22;;;;;;;15.38;2.60;;;7.40;99.90;;;;;;5088629;28;20262;-72
2022/02/05 13:27:48;;;;;;;12.50;4.07;;;7.40;99.90;;;;;;5105084;28;20326;-74
2022/02/05 13:36:00;;;;;;;8.80;3.33;;;7.40;99.90;;;;;;5103951;28;20338;-73
2022/02/05 13:38:31;;;;;;;8.80;3.63;;;7.30;99.90;;;;;;5106113;28;20186;-73
2022/02/05 13:41:02;;;;;;;9.05;4.00;;;7.40;99.90;;;;;;5098072;28;20209;-74
2022/02/05 13:43:44;;;;;;;11.32;3.13;;;7.40;99.90;;;;;;5099130;28;20272;-74
2022/02/05 13:46:13;;;;;;;48.20;6.63;;;7.40;99.90;;;;;;5102485;28;20666;-73
2022/02/05 13:48:40;;;;;;;11.80;3.83;;;7.50;99.90;;;;;;5108032;28;20195;-73
2022/02/05 13:51:16;;;;;;;8.05;3.80;;;7.50;99.90;;;;;;5114190;28;20769;-74
2022/02/05 13:53:50;;;;;;;16.95;3.55;;;7.50;99.90;;;;;;5095334;28;20254;-73
2022/02/05 13:56:17;;;;;;;10.88;3.08;;;7.50;99.90;;;;;;5108081;28;20666;-76
2022/02/05 13:58:44;;;;;;;5.90;2.60;;;7.50;99.90;;;;;;5106277;28;20201;-75
2022/02/05 14:01:29;;;;;;;8.70;4.18;;;7.60;99.90;;;;;;5099063;28;20205;-75
2022/02/05 14:03:58;;;;;;;12.35;3.15;;;7.60;99.90;;;;;;5088366;28;20232;-77
2022/02/05 14:06:29;;;;;;;5.22;2.95;;;7.60;99.90;;;;;;5107289;28;20609;-73
2022/02/05 14:08:57;;;;;;;7.68;3.17;;;7.50;99.90;;;;;;5091748;28;20589;-73
2022/02/05 14:11:30;;;;;;;8.05;3.20;;;7.50;99.90;;;;;;5106765;28;20663;-72
2022/02/05 14:14:00;;;;;;;8.15;2.65;;;7.50;99.90;;;;;;5105011;28;20728;-74
2022/02/05 14:16:31;;;;;;;13.73;3.22;;;7.40;99.90;;;;;;5100100;28;20286;-76
2022/02/05 14:19:03;;;;;;;7.25;2.47;;;7.40;99.90;;;;;;5102389;28;20304;-75
2022/02/05 14:21:34;;;;;;;10.93;3.58;;;7.40;99.90;;;;;;5110472;28;20263;-78
2022/02/05 14:24:02;;;;;;;9.90;3.20;;;7.60;99.90;;;;;;5098146;28;20206;-73
2022/02/05 14:26:42;;;;;;;8.52;3.55;;;7.60;99.90;;;;;;5085707;28;20225;-73
2022/02/05 14:29:09;;;;;;;4.97;2.65;;;7.60;99.90;;;;;;5086611;28;20268;-74
2022/02/05 14:31:45;;;;;;;8.20;3.42;;;7.60;99.90;;;;;;5101109;28;20712;-76
2022/02/05 14:34:20;;;;;;;6.35;2.60;;;7.50;99.90;;;;;;5106541;28;20295;-77
2022/02/05 14:42:28;;;;;;;6.82;3.60;;;7.40;99.90;;;;;;5090409;28;20240;-77
2022/02/05 14:44:55;;;;;;;12.77;2.90;;;7.40;99.90;;;;;;5097328;28;20209;-73
2022/02/05 14:47:23;;;;;;;6.25;2.63;;;7.40;99.90;;;;;;5103571;28;20243;-71
2022/02/05 14:49:49;;;;;;;5.78;2.95;;;7.50;99.90;;;;;;5109445;28;20290;-74
2022/02/05 14:52:18;;;;;;;7.53;2.35;;;7.40;99.90;;;;;;5114440;28;20232;-73
2022/02/05 14:54:45;;;;;;;10.25;3.28;;;7.40;99.90;;;;;;5096254;28;20770;-72
2022/02/05 14:57:13;;;;;;;11.20;3.10;;;7.50;99.90;;;;;;5110455;28;20263;-75
2022/02/05 14:59:41;;;;;;;10.40;3.58;;;7.40;99.90;;;;;;5100704;28;20744;-75
2022/02/05 15:02:09;;;;;;;8.10;3.95;;;7.40;99.90;;;;;;5108420;28;20252;-72
2022/02/05 15:04:36;;;;;;;7.90;3.17;;;7.50;99.90;;;;;;5110487;28;20206;-73
2022/02/05 15:07:04;;;;;;;10.35;2.65;;;7.40;99.90;;;;;;5107786;28;20194;-71
2022/02/05 15:09:32;;;;;;;9.75;2.83;;;7.40;99.90;;;;;;5105719;28;20237;-76
2022/02/05 15:11:59;;;;;;;7.50;3.83;;;7.40;99.90;;;;;;5098209;28;20645;-73